Time;durP1;ratioP1;P1;durP2;ratioP2;P2;SDS_P1;SDS_P2;PMS_P1;PMS_P2;Temp;Humidity;BMP_temperature;BMP_pressure;BME280_temperature;BME280_humidity;BME280_pressure;Samples;Min_cycle;Max_cycle;Signal;HPM_P1;HPM_P2
2022/09/23 00:00:43;;;;;;;17.00;11.45;;;10.30;99.90;;;;;;4929278;28;208736;-72
2022/09/23 00:03:09;;;;;;;18.63;12.50;;;10.30;99.90;;;;;;4960608;28;20058;-71
2022/09/23 00:05:39;;;;;;;18.48;12.18;;;10.30;99.90;;;;;;4913589;28;217078;-71
2022/09/23 00:08:07;;;;;;;18.73;12.40;;;10.30;99.90;;;;;;4967794;28;20053;-72
2022/09/23 00:10:36;;;;;;;17.55;12.20;;;10.30;99.90;;;;;;4912277;28;175618;-71
2022/09/23 00:13:04;;;;;;;18.45;12.23;;;10.20;99.90;;;;;;4969743;28;20535;-71
2022/09/23 00:15:32;;;;;;;17.48;12.55;;;10.20;99.90;;;;;;4929602;28;209597;-72
2022/09/23 00:17:59;;;;;;;19.58;13.02;;;10.20;99.90;;;;;;4951067;28;20082;-72
2022/09/23 00:20:25;;;;;;;18.45;13.13;;;10.10;99.90;;;;;;4888857;28;205926;-72
2022/09/23 00:22:52;;;;;;;20.23;12.55;;;10.10;99.90;;;;;;4944276;28;20062;-72
2022/09/23 00:25:18;;;;;;;18.40;13.07;;;10.10;99.90;;;;;;4897570;28;205499;-72
2022/09/23 00:27:44;;;;;;;19.23;13.15;;;10.10;99.90;;;;;;4942303;28;20153;-71
2022/09/23 00:30:10;;;;;;;16.48;11.57;;;10.10;99.90;;;;;;4920922;28;209082;-71
2022/09/23 00:32:37;;;;;;;17.00;12.40;;;10.00;99.90;;;;;;4960631;28;20059;-72
2022/09/23 00:35:03;;;;;;;22.95;14.23;;;10.10;99.90;;;;;;4935375;28;164284;-71
2022/09/23 00:37:30;;;;;;;20.42;12.63;;;10.00;99.90;;;;;;4972755;28;20046;-71
2022/09/23 00:39:58;;;;;;;20.65;12.32;;;10.00;99.90;;;;;;4945691;28;32566;-71
2022/09/23 00:42:24;;;;;;;23.27;14.60;;;10.00;99.90;;;;;;4976528;28;20535;-72
2022/09/23 00:45:00;;;;;;;18.65;13.65;;;9.90;99.90;;;;;;4928175;28;210637;-72
2022/09/23 00:47:34;;;;;;;18.98;13.20;;;9.90;99.90;;;;;;4980793;28;20058;-71
2022/09/23 00:50:13;;;;;;;19.63;12.70;;;9.90;99.90;;;;;;4932135;28;206233;-71
2022/09/23 00:52:40;;;;;;;17.73;13.30;;;9.80;99.90;;;;;;4952988;28;20070;-71
2022/09/23 00:55:15;;;;;;;20.75;13.23;;;9.80;99.90;;;;;;4903644;28;206661;-70
2022/09/23 00:57:44;;;;;;;17.95;11.70;;;9.80;99.90;;;;;;4956403;28;20058;-70
2022/09/23 01:00:11;;;;;;;16.58;11.60;;;9.80;99.90;;;;;;4912460;28;201990;-70
2022/09/23 01:02:38;;;;;;;17.98;12.02;;;9.80;99.90;;;;;;4955687;28;20516;-70
2022/09/23 01:05:06;;;;;;;18.38;11.68;;;9.80;99.90;;;;;;4909006;28;228556;-71
2022/09/23 01:07:33;;;;;;;16.98;12.52;;;9.80;99.90;;;;;;4944449;28;20062;-71
2022/09/23 01:10:00;;;;;;;20.45;13.07;;;9.80;99.90;;;;;;4913800;28;205962;-72
2022/09/23 01:12:48;;;;;;;18.58;12.77;;;9.80;99.90;;;;;;4986033;28;20071;-70
2022/09/23 01:15:36;;;;;;;16.20;11.98;;;9.80;99.90;;;;;;4931917;28;210020;-70
2022/09/23 01:18:23;;;;;;;15.65;10.68;;;9.90;99.90;;;;;;4978764;28;20050;-71
2022/09/23 01:21:35;;;;;;;16.75;11.43;;;9.80;99.90;;;;;;4948158;28;206056;-70
2022/09/23 01:24:22;;;;;;;14.68;10.88;;;9.80;99.90;;;;;;4940049;28;213950;-71
2022/09/23 01:27:11;;;;;;;17.10;11.23;;;9.80;99.90;;;;;;4951009;28;223489;-71
2022/09/23 01:30:04;;;;;;;16.05;11.02;;;9.80;99.90;;;;;;4938244;28;206488;-71
2022/09/23 01:32:46;;;;;;;17.70;10.63;;;9.80;99.90;;;;;;4982520;28;20059;-71
2022/09/23 01:35:29;;;;;;;17.63;11.25;;;9.80;99.90;;;;;;4929054;28;209219;-71
2022/09/23 01:38:02;;;;;;;18.00;11.30;;;9.70;99.90;;;;;;4972502;28;20078;-70
2022/09/23 01:40:37;;;;;;;17.65;11.25;;;9.70;99.90;;;;;;4942482;28;209091;-70
2022/09/23 01:43:12;;;;;;;15.48;11.68;;;9.70;99.90;;;;;;4982293;28;20056;-71
2022/09/23 01:45:45;;;;;;;18.65;11.20;;;9.70;99.90;;;;;;4927675;28;237171;-71
2022/09/23 01:48:33;;;;;;;14.52;10.63;;;9.70;99.90;;;;;;4963860;28;20062;-71
2022/09/23 01:51:15;;;;;;;14.98;10.15;;;9.70;99.90;;;;;;4939596;28;209508;-71
2022/09/23 01:53:57;;;;;;;16.20;11.02;;;9.70;99.90;;;;;;4965993;28;20058;-72
2022/09/23 01:56:29;;;;;;;15.88;11.57;;;9.70;99.90;;;;;;4955698;28;208326;-71
2022/09/23 01:59:13;;;;;;;15.00;9.57;;;9.70;99.90;;;;;;4980025;28;20093;-71
2022/09/23 02:02:02;;;;;;;16.77;11.77;;;9.70;99.90;;;;;;4912860;28;159116;-71
2022/09/23 02:04:46;;;;;;;15.80;11.75;;;9.70;99.90;;;;;;4908209;28;206165;-70
2022/09/23 02:07:21;;;;;;;15.75;10.63;;;9.70;99.90;;;;;;4936608;28;20062;-71
2022/09/23 02:09:56;;;;;;;17.73;12.07;;;9.70;99.90;;;;;;4908705;28;208207;-71
2022/09/23 02:12:27;;;;;;;16.52;11.27;;;9.70;99.90;;;;;;4950528;28;20059;-70
2022/09/23 02:15:07;;;;;;;16.13;11.40;;;9.70;99.90;;;;;;4909328;28;209802;-71
2022/09/23 02:17:57;;;;;;;15.43;11.20;;;9.70;99.90;;;;;;4966433;28;20065;-71
2022/09/23 02:20:31;;;;;;;16.67;10.85;;;9.70;99.90;;;;;;4921552;28;203676;-71
2022/09/23 02:23:25;;;;;;;21.10;11.90;;;9.60;99.90;;;;;;4960037;28;20046;-72
2022/09/23 02:26:07;;;;;;;16.10;10.95;;;9.60;99.90;;;;;;4892246;28;209537;-71
2022/09/23 02:29:00;;;;;;;15.85;11.68;;;9.60;99.90;;;;;;4958417;28;20062;-70
2022/09/23 02:31:42;;;;;;;16.10;11.65;;;9.60;99.90;;;;;;4942478;28;128146;-70
2022/09/23 02:34:23;;;;;;;15.55;10.82;;;9.60;99.90;;;;;;4936293;28;207078;-71
2022/09/23 02:37:08;;;;;;;15.60;11.52;;;9.50;99.90;;;;;;4972310;28;20065;-71
2022/09/23 02:39:51;;;;;;;17.17;12.20;;;9.50;99.90;;;;;;4934290;28;206478;-70
2022/09/23 02:42:25;;;;;;;19.23;11.80;;;9.50;99.90;;;;;;4980329;28;20423;-71
2022/09/23 02:44:51;;;;;;;17.17;11.65;;;9.40;99.90;;;;;;4948247;28;145601;-71
2022/09/23 02:47:22;;;;;;;16.85;12.25;;;9.40;99.90;;;;;;4978068;28;20057;-70
2022/09/23 02:49:49;;;;;;;;;;;9.40;99.90;;;;;;4934555;28;208919;-70
2022/09/23 02:52:16;;;;;;;18.40;13.65;;;9.30;99.90;;;;;;4979344;28;20299;-70
2022/09/23 02:54:42;;;;;;;18.17;13.35;;;9.30;99.90;;;;;;4932364;28;210093;-70
2022/09/23 02:57:09;;;;;;;17.48;12.00;;;9.30;99.90;;;;;;4967743;28;20419;-70
2022/09/23 02:59:36;;;;;;;17.25;12.40;;;9.20;99.90;;;;;;4922636;28;209133;-71
2022/09/23 03:02:24;;;;;;;17.33;12.48;;;9.10;99.90;;;;;;4970486;28;20594;-70
2022/09/23 03:05:12;;;;;;;18.45;13.25;;;9.10;99.90;;;;;;4936314;28;206878;-70
2022/09/23 03:08:11;;;;;;;17.40;12.57;;;9.10;99.90;;;;;;4988467;28;20058;-71
2022/09/23 03:11:09;;;;;;;16.38;13.43;;;9.10;99.90;;;;;;4932854;28;20054;-70
2022/09/23 03:13:51;;;;;;;18.25;13.50;;;9.00;99.90;;;;;;4979926;28;20049;-69
2022/09/23 03:16:42;;;;;;;16.42;12.93;;;9.00;99.90;;;;;;4909645;28;206469;-70
2022/09/23 03:19:40;;;;;;;18.27;13.30;;;8.90;99.90;;;;;;4939251;28;213218;-71
2022/09/23 03:22:27;;;;;;;17.60;13.43;;;8.90;99.90;;;;;;4909611;28;20464;-70
2022/09/23 03:24:58;;;;;;;19.38;13.10;;;8.90;99.90;;;;;;4899059;28;209854;-70
2022/09/23 03:27:28;;;;;;;17.75;12.70;;;8.80;99.90;;;;;;4923913;28;20074;-69
2022/09/23 03:29:55;;;;;;;16.85;12.95;;;8.80;99.90;;;;;;4888684;29;201876;-71
2022/09/23 03:32:26;;;;;;;20.08;13.52;;;8.80;99.90;;;;;;4930751;28;20055;-71
2022/09/23 03:34:55;;;;;;;18.23;13.52;;;8.70;99.90;;;;;;4884081;28;205264;-71
2022/09/23 03:37:45;;;;;;;17.15;13.13;;;8.70;99.90;;;;;;4938307;28;20053;-70
2022/09/23 03:40:28;;;;;;;20.27;14.25;;;8.70;99.90;;;;;;4873390;28;208638;-72
2022/09/23 03:42:57;;;;;;;18.30;14.55;;;8.70;99.90;;;;;;4931929;28;20051;-70
2022/09/23 03:45:28;;;;;;;18.35;14.20;;;8.70;99.90;;;;;;4855695;29;213150;-70
2022/09/23 03:47:54;;;;;;;19.83;14.15;;;8.60;99.90;;;;;;4915235;29;20074;-71
2022/09/23 03:50:21;;;;;;;17.95;13.38;;;8.60;99.90;;;;;;4893292;28;210105;-71
2022/09/23 03:52:49;;;;;;;17.92;13.15;;;8.60;99.90;;;;;;4926387;29;20539;-71
2022/09/23 03:55:16;;;;;;;16.80;13.43;;;8.50;99.90;;;;;;4896355;28;206718;-71
2022/09/23 03:57:43;;;;;;;18.33;14.20;;;8.50;99.90;;;;;;4939707;28;20093;-70
2022/09/23 04:00:10;;;;;;;18.45;13.73;;;8.50;99.90;;;;;;4903721;28;207580;-70
2022/09/23 04:02:37;;;;;;;20.08;14.80;;;8.50;99.90;;;;;;4955055;28;20064;-70
2022/09/23 04:05:04;;;;;;;18.92;15.95;;;8.50;99.90;;;;;;4935386;28;206152;-70
2022/09/23 04:07:30;;;;;;;17.25;14.35;;;8.50;99.90;;;;;;4977024;28;20065;-69
2022/09/23 04:09:57;;;;;;;20.42;14.90;;;8.50;99.90;;;;;;4934483;28;220097;-70
2022/09/23 04:12:23;;;;;;;19.33;15.18;;;8.50;99.90;;;;;;4977599;28;20075;-71
2022/09/23 04:14:49;;;;;;;18.42;15.10;;;8.50;99.90;;;;;;4921238;28;215688;-70
2022/09/23 04:17:16;;;;;;;19.45;15.25;;;8.50;99.90;;;;;;4975877;28;20073;-70
2022/09/23 04:19:42;;;;;;;20.15;14.77;;;8.50;99.90;;;;;;4939775;28;205868;-70
2022/09/23 04:22:08;;;;;;;19.20;16.05;;;8.50;99.90;;;;;;4980922;28;20050;-69
2022/09/23 04:24:34;;;;;;;20.20;15.50;;;8.50;99.90;;;;;;4944748;28;205835;-70
2022/09/23 04:27:01;;;;;;;18.42;15.20;;;8.50;99.90;;;;;;4992828;28;20046;-69
2022/09/23 04:29:27;;;;;;;18.30;15.70;;;8.60;99.90;;;;;;4929927;28;205286;-70
2022/09/23 04:31:53;;;;;;;22.48;17.63;;;8.50;99.90;;;;;;4977408;28;20077;-70
2022/09/23 04:34:19;;;;;;;18.52;16.30;;;8.60;99.90;;;;;;4932736;28;208916;-70
2022/09/23 04:36:47;;;;;;;20.98;16.75;;;8.60;99.90;;;;;;4968818;28;20050;-71
2022/09/23 04:39:14;;;;;;;21.30;16.10;;;8.60;99.90;;;;;;4924574;28;209891;-70
2022/09/23 04:41:44;;;;;;;21.83;17.52;;;8.70;99.90;;;;;;4990991;28;20067;-70
2022/09/23 04:44:12;;;;;;;19.10;16.52;;;8.70;99.90;;;;;;4944849;28;211224;-70
2022/09/23 04:46:40;;;;;;;18.75;16.42;;;8.70;99.90;;;;;;4975131;28;20649;-70
2022/09/23 04:49:07;;;;;;;20.08;17.10;;;8.70;99.90;;;;;;4938116;28;225590;-69
2022/09/23 04:51:33;;;;;;;20.30;16.75;;;8.70;99.90;;;;;;4978304;28;20046;-70
2022/09/23 04:53:59;;;;;;;20.40;16.02;;;8.80;99.90;;;;;;4945962;28;212259;-70
2022/09/23 04:56:28;;;;;;;21.67;16.85;;;8.80;99.90;;;;;;4948811;28;74605;-70
2022/09/23 04:59:00;;;;;;;24.60;16.58;;;8.80;99.90;;;;;;4977063;28;20054;-70
2022/09/23 05:01:29;;;;;;;20.75;16.58;;;8.80;99.90;;;;;;4929996;28;160781;-70
2022/09/23 05:04:00;;;;;;;20.13;15.75;;;8.80;99.90;;;;;;4989572;28;20050;-69
2022/09/23 05:06:28;;;;;;;19.70;16.48;;;8.80;99.90;;;;;;4913770;28;206260;-70
2022/09/23 05:08:56;;;;;;;19.67;17.02;;;8.80;99.90;;;;;;4983705;28;20405;-70
2022/09/23 05:11:23;;;;;;;20.40;17.30;;;8.80;99.90;;;;;;4914991;28;205380;-69
2022/09/23 05:13:51;;;;;;;21.30;17.55;;;8.80;99.90;;;;;;4956811;28;20059;-70
2022/09/23 05:16:19;;;;;;;20.75;17.20;;;8.90;99.90;;;;;;4927274;28;208339;-70
2022/09/23 05:18:46;;;;;;;20.77;16.90;;;8.80;99.90;;;;;;4963932;28;20063;-70
2022/09/23 05:21:15;;;;;;;22.00;17.10;;;8.90;99.90;;;;;;4877420;28;205314;-70
2022/09/23 05:23:45;;;;;;;23.67;17.17;;;8.80;99.90;;;;;;4958439;28;20062;-70
2022/09/23 05:26:12;;;;;;;19.33;16.83;;;8.90;99.90;;;;;;4911803;28;212700;-70
2022/09/23 05:28:39;;;;;;;23.55;17.88;;;8.90;99.90;;;;;;4963421;28;20556;-70
2022/09/23 05:31:08;;;;;;;20.50;17.13;;;8.80;99.90;;;;;;4913911;28;208695;-71
2022/09/23 05:33:35;;;;;;;20.42;17.77;;;8.80;99.90;;;;;;4976276;28;20420;-71
2022/09/23 05:36:03;;;;;;;23.50;17.48;;;8.80;99.90;;;;;;4921031;28;200787;-70
2022/09/23 05:38:30;;;;;;;22.40;17.25;;;8.80;99.90;;;;;;4966401;28;20059;-70
2022/09/23 05:41:02;;;;;;;21.20;17.30;;;8.80;99.90;;;;;;4918638;28;40155;-70
2022/09/23 05:43:28;;;;;;;21.08;16.70;;;8.80;99.90;;;;;;4959139;28;20054;-71
2022/09/23 05:46:09;;;;;;;20.33;16.65;;;8.80;99.90;;;;;;4914071;28;209062;-71
2022/09/23 05:48:36;;;;;;;20.00;17.13;;;8.90;99.90;;;;;;4971873;28;20059;-70
2022/09/23 05:51:05;;;;;;;20.75;17.17;;;8.90;99.90;;;;;;4938172;28;212032;-70
2022/09/23 05:53:31;;;;;;;20.60;17.13;;;9.00;99.90;;;;;;4975767;28;20062;-70
2022/09/23 05:55:57;;;;;;;19.60;16.33;;;9.00;99.90;;;;;;4942190;28;211531;-70
2022/09/23 05:58:24;;;;;;;19.92;16.75;;;9.00;99.90;;;;;;4980078;28;20057;-70
2022/09/23 06:00:50;;;;;;;21.58;17.20;;;9.10;99.90;;;;;;4951383;28;209577;-70
2022/09/23 06:03:18;;;;;;;20.70;17.02;;;9.20;99.90;;;;;;4972052;28;20066;-71
2022/09/23 06:05:45;;;;;;;19.65;15.65;;;9.20;99.90;;;;;;4917772;28;163715;-70
2022/09/23 06:08:12;;;;;;;19.90;15.57;;;9.30;99.90;;;;;;4972851;28;20076;-70
2022/09/23 06:10:40;;;;;;;21.88;16.50;;;9.30;99.90;;;;;;4907354;28;205436;-70
2022/09/23 06:13:07;;;;;;;19.17;16.13;;;9.40;99.90;;;;;;4974229;28;20061;-70
2022/09/23 06:15:34;;;;;;;21.30;16.27;;;9.50;99.90;;;;;;4945769;28;207225;-71
2022/09/23 06:18:00;;;;;;;19.20;15.90;;;9.60;99.90;;;;;;4977667;28;20047;-71
2022/09/23 06:20:26;;;;;;;19.35;15.43;;;9.60;99.90;;;;;;4940005;28;213023;-71
2022/09/23 06:22:53;;;;;;;19.60;15.52;;;9.70;99.90;;;;;;4978678;28;20065;-71
2022/09/23 06:25:21;;;;;;;21.35;14.95;;;9.80;99.90;;;;;;4951161;28;210839;-71
2022/09/23 06:27:55;;;;;;;17.15;14.75;;;9.80;99.90;;;;;;4990552;28;20058;-71
2022/09/23 06:30:22;;;;;;;20.08;15.85;;;9.90;99.90;;;;;;4926783;28;208096;-70
2022/09/23 06:32:52;;;;;;;19.67;14.60;;;10.00;99.90;;;;;;4976024;28;20049;-70
2022/09/23 06:35:20;;;;;;;19.50;14.53;;;10.10;99.90;;;;;;4927284;28;210770;-70
2022/09/23 06:37:47;;;;;;;18.10;14.70;;;10.10;99.90;;;;;;4967917;28;20415;-70
2022/09/23 06:40:13;;;;;;;19.17;14.50;;;10.20;99.90;;;;;;4940241;28;213246;-70
2022/09/23 06:42:41;;;;;;;17.48;14.75;;;10.30;99.90;;;;;;4981178;28;20054;-71
2022/09/23 06:45:10;;;;;;;20.60;14.95;;;10.30;99.90;;;;;;4936380;28;211814;-69
2022/09/23 06:47:36;;;;;;;18.42;14.18;;;10.40;99.90;;;;;;4981307;28;20050;-70
2022/09/23 06:50:03;;;;;;;19.25;13.90;;;10.40;99.90;;;;;;4939818;28;188329;-70
2022/09/23 06:52:29;;;;;;;16.45;14.15;;;10.50;99.90;;;;;;4986152;28;20069;-68
2022/09/23 06:54:56;;;;;;;19.80;14.20;;;10.60;99.90;;;;;;4939557;28;218659;-70
2022/09/23 06:57:23;;;;;;;16.45;13.50;;;10.60;99.90;;;;;;4987175;28;20043;-70
2022/09/23 06:59:49;;;;;;;19.23;13.73;;;10.60;99.90;;;;;;4926010;28;209986;-70
2022/09/23 07:02:16;;;;;;;18.73;14.45;;;10.70;99.90;;;;;;4978618;28;20528;-71
2022/09/23 07:04:42;;;;;;;18.67;14.13;;;10.70;99.90;;;;;;4940433;28;209772;-70
2022/09/23 07:07:10;;;;;;;19.85;13.50;;;10.70;99.90;;;;;;4981074;28;20520;-70
2022/09/23 07:09:37;;;;;;;19.38;13.57;;;10.80;99.90;;;;;;4943189;28;243831;-70
2022/09/23 07:12:03;;;;;;;17.73;13.63;;;10.90;99.90;;;;;;4988295;28;20058;-70
2022/09/23 07:14:29;;;;;;;16.70;13.63;;;10.90;99.90;;;;;;4943258;28;209972;-70
2022/09/23 07:16:56;;;;;;;17.60;13.07;;;11.00;99.90;;;;;;4963437;28;20058;-70
2022/09/23 07:19:23;;;;;;;17.63;13.27;;;11.10;99.90;;;;;;4939545;28;209437;-70
2022/09/23 07:21:49;;;;;;;18.23;12.80;;;11.10;99.90;;;;;;4991648;28;20160;-70
2022/09/23 07:24:15;;;;;;;18.67;12.85;;;11.20;99.90;;;;;;4931416;28;209104;-70
2022/09/23 07:26:41;;;;;;;17.63;12.90;;;11.20;99.90;;;;;;4976895;28;20051;-71
2022/09/23 07:29:12;;;;;;;17.33;12.80;;;11.30;99.90;;;;;;4937414;28;210573;-70
2022/09/23 07:31:38;;;;;;;17.20;13.07;;;11.30;99.90;;;;;;4997044;28;20586;-70
2022/09/23 07:34:06;;;;;;;20.10;13.02;;;11.40;99.90;;;;;;4927626;28;209581;-70
2022/09/23 07:36:32;;;;;;;17.15;13.00;;;11.40;99.90;;;;;;4988589;28;20046;-71
2022/09/23 07:39:02;;;;;;;16.92;12.27;;;11.50;99.90;;;;;;4971598;28;210103;-71
2022/09/23 07:41:30;;;;;;;16.52;12.52;;;11.50;99.90;;;;;;4948509;28;205384;-70
2022/09/23 07:43:59;;;;;;;20.27;12.77;;;11.60;99.90;;;;;;4977535;28;206276;-69
2022/09/23 07:46:27;;;;;;;18.05;12.02;;;11.70;99.90;;;;;;4959331;28;205384;-70
2022/09/23 07:48:54;;;;;;;16.17;12.45;;;11.70;99.90;;;;;;4979644;28;20069;-70
2022/09/23 07:51:25;;;;;;;17.48;11.80;;;11.80;99.90;;;;;;4923356;28;206661;-71
2022/09/23 07:53:53;;;;;;;18.20;12.55;;;11.90;99.90;;;;;;4980518;28;20069;-70
2022/09/23 07:56:23;;;;;;;19.17;12.45;;;11.90;99.90;;;;;;4956328;28;206248;-70
2022/09/23 07:58:58;;;;;;;17.90;11.68;;;12.00;99.90;;;;;;4983374;28;20412;-70
2022/09/23 08:01:30;;;;;;;18.13;11.82;;;12.00;99.90;;;;;;4947398;28;205589;-71
2022/09/23 08:03:58;;;;;;;17.65;11.57;;;12.10;99.90;;;;;;4974705;28;212545;-70
2022/09/23 08:06:25;;;;;;;15.10;12.02;;;12.20;99.90;;;;;;4961275;28;191306;-71
2022/09/23 08:08:51;;;;;;;16.60;11.23;;;12.30;99.90;;;;;;4983222;28;20058;-71
2022/09/23 08:11:17;;;;;;;16.00;12.43;;;12.40;99.90;;;;;;4924577;28;208091;-71
2022/09/23 08:13:44;;;;;;;16.63;11.60;;;12.60;99.90;;;;;;4987527;28;20833;-71
2022/09/23 08:16:10;;;;;;;15.35;11.20;;;12.70;99.90;;;;;;4941660;28;208691;-71
2022/09/23 08:18:36;;;;;;;15.98;11.05;;;12.90;99.90;;;;;;4982716;28;20058;-71
2022/09/23 08:21:02;;;;;;;14.43;10.35;;;13.00;99.90;;;;;;4943970;28;209140;-71
2022/09/23 08:23:32;;;;;;;14.40;10.73;;;13.20;99.90;;;;;;4988608;28;20066;-71
2022/09/23 08:26:04;;;;;;;13.95;10.48;;;13.30;99.90;;;;;;4942828;28;207436;-71
2022/09/23 08:28:32;;;;;;;17.25;10.40;;;13.40;99.90;;;;;;4973571;28;20062;-71
2022/09/23 08:30:58;;;;;;;17.48;10.50;;;13.50;99.90;;;;;;4932127;28;212107;-71
2022/09/23 08:33:25;;;;;;;18.05;10.50;;;13.70;99.90;;;;;;4981297;28;20058;-71
2022/09/23 08:35:52;;;;;;;16.45;10.30;;;13.80;99.90;;;;;;4944433;28;210271;-71
2022/09/23 08:38:19;;;;;;;12.60;9.38;;;14.00;99.90;;;;;;4982791;28;20073;-71
2022/09/23 08:40:48;;;;;;;14.57;9.68;;;14.00;99.90;;;;;;4948888;28;213790;-71
2022/09/23 08:43:27;;;;;;;15.35;9.75;;;14.20;99.90;;;;;;4980073;28;20524;-72
2022/09/23 08:45:56;;;;;;;19.42;9.57;;;14.40;99.90;;;;;;4994037;28;20073;-71
2022/09/23 08:48:36;;;;;;;14.73;9.32;;;14.40;99.90;;;;;;4984650;28;20058;-72
2022/09/23 08:51:10;;;;;;;15.73;9.63;;;14.40;99.90;;;;;;4933196;28;263579;-71
2022/09/23 08:53:37;;;;;;;13.60;9.40;;;14.50;99.90;;;;;;4975007;28;20555;-72
2022/09/23 08:56:10;;;;;;;15.38;9.45;;;14.60;99.90;;;;;;4944020;28;206057;-72
2022/09/23 08:59:10;;;;;;;14.00;8.65;;;14.70;99.90;;;;;;4981638;28;20061;-72
2022/09/23 09:01:55;;;;;;;14.00;9.38;;;14.80;99.90;;;;;;4938875;28;206735;-71
2022/09/23 09:04:41;;;;;;;13.45;8.85;;;14.80;99.90;;;;;;4980547;28;20435;-72
2022/09/23 09:07:08;;;;;;;15.52;9.25;;;14.90;99.90;;;;;;4931321;28;202717;-71
2022/09/23 09:09:56;;;;;;;12.98;8.73;;;14.80;99.90;;;;;;4979570;28;20067;-71
2022/09/23 09:12:46;;;;;;;13.70;8.77;;;14.90;99.90;;;;;;4953024;28;209434;-71
2022/09/23 09:15:19;;;;;;;13.75;8.93;;;14.90;99.90;;;;;;4943830;28;210781;-71
2022/09/23 09:17:47;;;;;;;14.35;8.70;;;15.00;99.90;;;;;;4968261;28;20507;-72
2022/09/23 09:20:23;;;;;;;14.52;8.10;;;15.00;99.90;;;;;;4938981;28;212452;-71
2022/09/23 09:22:59;;;;;;;12.57;8.70;;;15.10;99.90;;;;;;4999259;28;20096;-72
2022/09/23 09:25:34;;;;;;;14.60;8.20;;;15.10;99.90;;;;;;4938883;28;209658;-72
2022/09/23 09:28:29;;;;;;;12.32;8.25;;;15.20;99.90;;;;;;4957887;28;20053;-72
2022/09/23 09:31:01;;;;;;;12.32;8.40;;;15.20;99.90;;;;;;4942265;28;210631;-72
2022/09/23 09:33:36;;;;;;;13.82;8.63;;;15.30;99.90;;;;;;4978257;28;20070;-72
2022/09/23 09:36:31;;;;;;;14.73;8.35;;;15.30;99.90;;;;;;4930196;28;209079;-72
2022/09/23 09:38:58;;;;;;;12.15;8.35;;;15.30;99.90;;;;;;4969274;28;20057;-72
2022/09/23 09:41:30;;;;;;;13.07;8.20;;;15.40;99.90;;;;;;4937925;28;213089;-72
2022/09/23 09:43:59;;;;;;;13.05;8.27;;;15.40;99.90;;;;;;4985428;28;20065;-72
2022/09/23 09:46:59;;;;;;;11.73;8.10;;;15.50;99.90;;;;;;4938923;28;206231;-73
2022/09/23 09:49:28;;;;;;;15.60;8.55;;;15.60;99.90;;;;;;4978762;28;20058;-74
2022/09/23 09:52:12;;;;;;;14.00;8.18;;;15.50;99.90;;;;;;4912085;28;208998;-71
2022/09/23 09:54:38;;;;;;;13.57;8.30;;;15.60;99.90;;;;;;4977614;28;20062;-72
2022/09/23 09:57:11;;;;;;;13.23;8.40;;;15.70;99.90;;;;;;4955080;28;209936;-71
2022/09/23 09:59:42;;;;;;;18.52;8.10;;;15.80;99.90;;;;;;4979157;28;20058;-71
2022/09/23 10:02:11;;;;;;;;;;;15.80;99.90;;;;;;4935880;28;213852;-72
2022/09/23 10:04:38;;;;;;;12.63;8.25;;;15.80;99.90;;;;;;4972859;28;19925;-71
2022/09/23 10:07:14;;;;;;;14.45;7.75;;;15.80;99.90;;;;;;4929899;28;207055;-73
2022/09/23 10:09:49;;;;;;;12.68;8.00;;;15.90;99.90;;;;;;4975147;28;20043;-71
2022/09/23 10:12:20;;;;;;;13.57;8.05;;;15.90;99.90;;;;;;4938932;28;212174;-72
2022/09/23 10:14:50;;;;;;;13.10;7.72;;;15.90;99.90;;;;;;4981215;28;20054;-73
2022/09/23 10:17:32;;;;;;;12.05;7.68;;;16.00;99.90;;;;;;4938014;28;206942;-73
2022/09/23 10:20:08;;;;;;;11.88;7.15;;;16.00;99.90;;;;;;4982759;28;20054;-71
2022/09/23 10:22:41;;;;;;;13.88;7.70;;;16.00;99.90;;;;;;4933887;28;206383;-72
2022/09/23 10:25:16;;;;;;;13.10;7.90;;;16.00;99.90;;;;;;4981087;28;209678;-71
2022/09/23 10:27:44;;;;;;;12.93;7.45;;;16.00;99.90;;;;;;4946305;28;205952;-72
2022/09/23 10:30:25;;;;;;;12.35;7.68;;;16.10;99.90;;;;;;4963425;28;213332;-74
2022/09/23 10:32:53;;;;;;;;;;;16.20;99.90;;;;;;4921611;28;206434;-71
2022/09/23 10:35:22;;;;;;;14.23;7.57;;;16.20;99.90;;;;;;4912899;28;209577;-75
2022/09/23 10:37:51;;;;;;;13.68;8.10;;;16.20;99.90;;;;;;4944435;28;20400;-74
2022/09/23 10:46:37;;;;;;;12.85;7.78;;;16.30;99.90;;;;;;4953913;28;20428;-71
2022/09/23 10:47:10;;;;;;;13.65;7.30;;;16.40;99.90;;;;;;4927999;28;205770;-71
2022/09/23 10:49:54;;;;;;;13.02;7.45;;;16.40;99.90;;;;;;4977996;28;20512;-72
2022/09/23 10:52:26;;;;;;;12.73;7.60;;;16.60;99.90;;;;;;4912070;28;206119;-71
2022/09/23 10:55:28;;;;;;;12.73;7.90;;;16.60;99.90;;;;;;4952673;28;20055;-72
2022/09/23 10:58:20;;;;;;;13.13;7.55;;;16.70;99.90;;;;;;4869219;28;207838;-72
2022/09/23 11:01:00;;;;;;;12.10;7.28;;;16.70;99.90;;;;;;4843946;29;205540;-72
2022/09/23 11:03:39;;;;;;;14.80;7.50;;;16.70;99.90;;;;;;4882428;29;20095;-72
2022/09/23 11:06:40;;;;;;;14.07;7.75;;;16.70;99.90;;;;;;4864434;29;205419;-71
2022/09/23 11:09:16;;;;;;;15.25;7.53;;;16.80;99.90;;;;;;4897048;29;20056;-71
2022/09/23 11:11:57;;;;;;;14.38;7.45;;;16.80;99.90;;;;;;4861545;29;70817;-71
2022/09/23 11:14:29;;;;;;;11.35;7.60;;;16.80;99.90;;;;;;4889115;29;20486;-71
2022/09/23 11:17:13;;;;;;;12.52;7.40;;;16.80;99.90;;;;;;4841032;29;199971;-71
2022/09/23 11:20:00;;;;;;;15.15;7.88;;;16.70;99.90;;;;;;4915216;29;20074;-72
2022/09/23 11:22:54;;;;;;;13.05;7.63;;;16.70;99.90;;;;;;4866263;29;209890;-71
2022/09/23 11:25:29;;;;;;;12.88;7.43;;;16.60;99.90;;;;;;4857946;29;206091;-71
2022/09/23 11:28:16;;;;;;;15.70;8.02;;;16.50;99.90;;;;;;4899508;29;20056;-71
2022/09/23 11:31:13;;;;;;;15.65;7.78;;;16.50;99.90;;;;;;4863063;29;205995;-71
2022/09/23 11:33:40;;;;;;;13.95;7.60;;;16.60;99.90;;;;;;4930596;28;20066;-72
2022/09/23 11:36:51;;;;;;;12.45;7.50;;;16.50;99.90;;;;;;4875365;29;195406;-71
2022/09/23 11:39:22;;;;;;;14.23;8.15;;;16.60;99.90;;;;;;4836235;29;20649;-73
2022/09/23 11:41:53;;;;;;;14.43;7.85;;;16.60;99.90;;;;;;4852753;29;145792;-72
2022/09/23 11:44:27;;;;;;;13.13;7.07;;;16.60;99.90;;;;;;4889029;29;20096;-72
2022/09/23 11:47:00;;;;;;;13.60;8.07;;;16.60;99.90;;;;;;4846680;29;205635;-72
2022/09/23 11:49:33;;;;;;;12.88;7.43;;;16.60;99.90;;;;;;4877541;29;20148;-73
2022/09/23 11:52:19;;;;;;;13.93;8.05;;;16.60;99.90;;;;;;4839024;29;206249;-72
2022/09/23 11:54:53;;;;;;;13.13;7.90;;;16.70;99.90;;;;;;4897081;29;20084;-72
2022/09/23 11:57:38;;;;;;;12.73;7.53;;;16.60;99.90;;;;;;4852264;29;205774;-72
2022/09/23 12:00:20;;;;;;;15.10;7.97;;;16.60;99.90;;;;;;4896587;29;20040;-72
2022/09/23 12:03:08;;;;;;;13.98;7.70;;;16.60;99.90;;;;;;4833758;29;207736;-72
2022/09/23 12:05:40;;;;;;;13.30;8.18;;;16.60;99.90;;;;;;4842924;29;213023;-72
2022/09/23 12:08:32;;;;;;;14.52;8.40;;;16.60;99.90;;;;;;4891059;29;20060;-72
2022/09/23 12:11:28;;;;;;;14.45;8.18;;;16.70;99.90;;;;;;4850389;29;210221;-71
2022/09/23 12:14:30;;;;;;;14.77;7.72;;;16.70;99.90;;;;;;4887671;29;20059;-72
2022/09/23 12:17:33;;;;;;;15.45;8.25;;;16.80;99.90;;;;;;4941102;28;206105;-72
2022/09/23 12:20:08;;;;;;;15.55;8.13;;;16.90;99.90;;;;;;4985765;28;20050;-72
2022/09/23 12:22:58;;;;;;;15.02;8.27;;;16.90;99.90;;;;;;4931417;28;191745;-72
2022/09/23 12:25:45;;;;;;;14.73;8.63;;;16.90;99.90;;;;;;4945402;28;209016;-73
2022/09/23 12:28:23;;;;;;;15.02;8.68;;;16.80;99.90;;;;;;4973170;28;20137;-73
2022/09/23 12:30:52;;;;;;;16.95;8.90;;;16.80;99.90;;;;;;4944357;28;205267;-73
2022/09/23 12:33:25;;;;;;;13.68;8.73;;;16.70;99.90;;;;;;4972905;28;20047;-74
2022/09/23 12:35:53;;;;;;;15.38;8.90;;;16.70;99.90;;;;;;4933482;28;206969;-74
2022/09/23 12:38:26;;;;;;;17.10;9.57;;;16.70;99.90;;;;;;4955526;28;20665;-75
2022/09/23 12:40:54;;;;;;;14.90;9.15;;;16.60;99.90;;;;;;4919471;28;205439;-76
2022/09/23 12:43:32;;;;;;;18.02;9.95;;;16.60;99.90;;;;;;4962516;28;20406;-76
2022/09/23 12:46:24;;;;;;;14.00;9.45;;;16.60;99.90;;;;;;4931437;28;157409;-76
2022/09/23 12:48:56;;;;;;;16.83;9.90;;;16.70;99.90;;;;;;4986362;28;20062;-76
2022/09/23 12:51:24;;;;;;;16.02;10.00;;;16.70;99.90;;;;;;4947055;28;205532;-76
2022/09/23 12:53:53;;;;;;;15.50;9.13;;;16.60;99.90;;;;;;5002407;28;20507;-75
2022/09/23 12:56:23;;;;;;;13.88;9.25;;;16.70;99.90;;;;;;4943767;28;212792;-76
2022/09/23 12:58:49;;;;;;;16.33;10.07;;;16.60;99.90;;;;;;4982171;28;20423;-76
2022/09/23 13:01:17;;;;;;;13.98;9.07;;;16.60;99.90;;;;;;4941017;28;208809;-76
2022/09/23 13:06:45;;;;;;;15.60;9.68;;;16.50;99.90;;;;;;4940494;28;206555;-75
2022/09/23 13:09:20;;;;;;;14.55;9.27;;;16.50;99.90;;;;;;4976828;28;20053;-76